sensor_id;sensor_type;location;lat;lon;timestamp;P1;durP1;ratioP1;P2;durP2;ratioP2
12635;SDS011;6383;50.830;7.210;2023-12-20T00:01:08;5.32;;;4.95;;
12635;SDS011;6383;50.830;7.210;2023-12-20T00:03:37;5.88;;;5.47;;
12635;SDS011;6383;50.830;7.210;2023-12-20T00:06:06;5.15;;;4.75;;
12635;SDS011;6383;50.830;7.210;2023-12-20T00:08:35;5.38;;;4.82;;
12635;SDS011;6383;50.830;7.210;2023-12-20T00:11:03;7.35;;;6.85;;
12635;SDS011;6383;50.830;7.210;2023-12-20T00:13:32;6.70;;;6.20;;
12635;SDS011;6383;50.830;7.210;2023-12-20T00:16:01;6.18;;;5.57;;
12635;SDS011;6383;50.830;7.210;2023-12-20T00:18:29;7.68;;;7.05;;
12635;SDS011;6383;50.830;7.210;2023-12-20T00:20:57;5.43;;;4.97;;
12635;SDS011;6383;50.830;7.210;2023-12-20T00:23:26;6.93;;;5.50;;
12635;SDS011;6383;50.830;7.210;2023-12-20T00:25:55;6.35;;;5.75;;
12635;SDS011;6383;50.830;7.210;2023-12-20T00:28:23;5.80;;;5.40;;
12635;SDS011;6383;50.830;7.210;2023-12-20T00:30:51;5.72;;;5.32;;
12635;SDS011;6383;50.830;7.210;2023-12-20T00:33:20;5.82;;;5.43;;
12635;SDS011;6383;50.830;7.210;2023-12-20T00:35:48;5.68;;;5.18;;
12635;SDS011;6383;50.830;7.210;2023-12-20T00:38:17;8.10;;;6.75;;
12635;SDS011;6383;50.830;7.210;2023-12-20T00:40:45;6.10;;;5.60;;
12635;SDS011;6383;50.830;7.210;2023-12-20T00:43:14;6.53;;;5.83;;
12635;SDS011;6383;50.830;7.210;2023-12-20T00:45:43;6.45;;;5.95;;
12635;SDS011;6383;50.830;7.210;2023-12-20T00:48:11;7.22;;;6.63;;
12635;SDS011;6383;50.830;7.210;2023-12-20T00:50:39;8.15;;;7.35;;
12635;SDS011;6383;50.830;7.210;2023-12-20T00:53:06;8.63;;;7.80;;
12635;SDS011;6383;50.830;7.210;2023-12-20T00:55:35;8.18;;;7.45;;
12635;SDS011;6383;50.830;7.210;2023-12-20T00:58:04;8.45;;;7.65;;
12635;SDS011;6383;50.830;7.210;2023-12-20T01:00:33;8.80;;;8.00;;
12635;SDS011;6383;50.830;7.210;2023-12-20T01:03:03;10.00;;;9.00;;
12635;SDS011;6383;50.830;7.210;2023-12-20T01:05:32;10.35;;;9.45;;
12635;SDS011;6383;50.830;7.210;2023-12-20T01:08:01;9.65;;;8.77;;
12635;SDS011;6383;50.830;7.210;2023-12-20T01:10:31;9.43;;;8.60;;
12635;SDS011;6383;50.830;7.210;2023-12-20T01:12:59;7.30;;;6.70;;
12635;SDS011;6383;50.830;7.210;2023-12-20T01:15:29;7.80;;;6.97;;
12635;SDS011;6383;50.830;7.210;2023-12-20T01:17:57;7.13;;;5.55;;
12635;SDS011;6383;50.830;7.210;2023-12-20T01:20:27;5.93;;;5.35;;
12635;SDS011;6383;50.830;7.210;2023-12-20T01:22:55;5.00;;;4.60;;
12635;SDS011;6383;50.830;7.210;2023-12-20T01:25:23;6.57;;;4.50;;
12635;SDS011;6383;50.830;7.210;2023-12-20T01:27:50;6.25;;;4.60;;
12635;SDS011;6383;50.830;7.210;2023-12-20T01:30:19;4.80;;;4.37;;
12635;SDS011;6383;50.830;7.210;2023-12-20T01:32:49;5.20;;;4.22;;
12635;SDS011;6383;50.830;7.210;2023-12-20T01:35:16;5.27;;;4.33;;
12635;SDS011;6383;50.830;7.210;2023-12-20T01:37:44;6.28;;;4.72;;
12635;SDS011;6383;50.830;7.210;2023-12-20T01:40:11;5.93;;;5.40;;
12635;SDS011;6383;50.830;7.210;2023-12-20T01:42:39;7.97;;;5.63;;
12635;SDS011;6383;50.830;7.210;2023-12-20T01:45:07;6.63;;;5.43;;
12635;SDS011;6383;50.830;7.210;2023-12-20T01:47:37;5.90;;;5.30;;
12635;SDS011;6383;50.830;7.210;2023-12-20T01:50:07;6.30;;;5.65;;
12635;SDS011;6383;50.830;7.210;2023-12-20T01:52:35;7.18;;;5.68;;
12635;SDS011;6383;50.830;7.210;2023-12-20T01:55:03;7.50;;;5.38;;
12635;SDS011;6383;50.830;7.210;2023-12-20T01:57:39;7.88;;;6.15;;
12635;SDS011;6383;50.830;7.210;2023-12-20T02:00:07;6.70;;;5.70;;
12635;SDS011;6383;50.830;7.210;2023-12-20T02:02:37;9.98;;;7.22;;
12635;SDS011;6383;50.830;7.210;2023-12-20T02:05:08;12.35;;;7.70;;
12635;SDS011;6383;50.830;7.210;2023-12-20T02:07:37;11.00;;;6.97;;
12635;SDS011;6383;50.830;7.210;2023-12-20T02:10:05;9.63;;;7.40;;
12635;SDS011;6383;50.830;7.210;2023-12-20T02:12:34;11.20;;;7.72;;
12635;SDS011;6383;50.830;7.210;2023-12-20T02:15:02;11.05;;;8.52;;
12635;SDS011;6383;50.830;7.210;2023-12-20T02:17:31;11.75;;;8.57;;
12635;SDS011;6383;50.830;7.210;2023-12-20T02:20:00;11.23;;;9.18;;
12635;SDS011;6383;50.830;7.210;2023-12-20T02:22:31;10.52;;;9.32;;
12635;SDS011;6383;50.830;7.210;2023-12-20T02:24:59;11.52;;;8.90;;
12635;SDS011;6383;50.830;7.210;2023-12-20T02:27:29;14.55;;;8.98;;
12635;SDS011;6383;50.830;7.210;2023-12-20T02:29:58;12.13;;;8.23;;
12635;SDS011;6383;50.830;7.210;2023-12-20T02:32:27;11.10;;;7.40;;
12635;SDS011;6383;50.830;7.210;2023-12-20T02:34:56;9.15;;;6.82;;
12635;SDS011;6383;50.830;7.210;2023-12-20T02:37:25;12.65;;;6.00;;
12635;SDS011;6383;50.830;7.210;2023-12-20T02:39:54;9.90;;;5.80;;
12635;SDS011;6383;50.830;7.210;2023-12-20T02:42:22;9.55;;;5.20;;
12635;SDS011;6383;50.830;7.210;2023-12-20T02:44:49;15.18;;;5.50;;
12635;SDS011;6383;50.830;7.210;2023-12-20T02:47:17;14.45;;;5.03;;
12635;SDS011;6383;50.830;7.210;2023-12-20T02:49:45;14.25;;;5.85;;
12635;SDS011;6383;50.830;7.210;2023-12-20T02:52:14;13.13;;;5.40;;
12635;SDS011;6383;50.830;7.210;2023-12-20T02:54:43;12.20;;;5.50;;
12635;SDS011;6383;50.830;7.210;2023-12-20T02:57:12;15.52;;;5.72;;
12635;SDS011;6383;50.830;7.210;2023-12-20T02:59:41;15.97;;;4.90;;
12635;SDS011;6383;50.830;7.210;2023-12-20T03:02:10;16.13;;;5.78;;
12635;SDS011;6383;50.830;7.210;2023-12-20T03:04:38;12.35;;;4.60;;
12635;SDS011;6383;50.830;7.210;2023-12-20T03:07:07;14.60;;;5.30;;
12635;SDS011;6383;50.830;7.210;2023-12-20T03:09:36;12.90;;;4.95;;
12635;SDS011;6383;50.830;7.210;2023-12-20T03:12:04;14.65;;;4.97;;
12635;SDS011;6383;50.830;7.210;2023-12-20T03:14:35;13.25;;;4.43;;
12635;SDS011;6383;50.830;7.210;2023-12-20T03:17:03;13.87;;;4.50;;
12635;SDS011;6383;50.830;7.210;2023-12-20T03:19:32;16.42;;;3.97;;
12635;SDS011;6383;50.830;7.210;2023-12-20T03:22:01;15.38;;;4.22;;
12635;SDS011;6383;50.830;7.210;2023-12-20T03:24:34;19.30;;;4.88;;
12635;SDS011;6383;50.830;7.210;2023-12-20T03:27:01;17.47;;;4.37;;
12635;SDS011;6383;50.830;7.210;2023-12-20T03:29:30;19.63;;;3.70;;
12635;SDS011;6383;50.830;7.210;2023-12-20T03:31:59;14.25;;;3.97;;
12635;SDS011;6383;50.830;7.210;2023-12-20T03:34:26;17.67;;;4.47;;
12635;SDS011;6383;50.830;7.210;2023-12-20T03:36:56;14.80;;;4.38;;
12635;SDS011;6383;50.830;7.210;2023-12-20T03:39:25;17.52;;;4.80;;
12635;SDS011;6383;50.830;7.210;2023-12-20T03:41:54;20.00;;;4.45;;
12635;SDS011;6383;50.830;7.210;2023-12-20T03:44:23;17.77;;;4.43;;
12635;SDS011;6383;50.830;7.210;2023-12-20T03:46:51;22.63;;;4.70;;
12635;SDS011;6383;50.830;7.210;2023-12-20T03:49:21;17.45;;;4.07;;
12635;SDS011;6383;50.830;7.210;2023-12-20T03:51:49;18.35;;;3.80;;
12635;SDS011;6383;50.830;7.210;2023-12-20T03:54:17;16.75;;;4.13;;
12635;SDS011;6383;50.830;7.210;2023-12-20T03:56:46;16.23;;;3.80;;
12635;SDS011;6383;50.830;7.210;2023-12-20T03:59:15;16.75;;;4.10;;
12635;SDS011;6383;50.830;7.210;2023-12-20T04:01:46;17.70;;;3.78;;
12635;SDS011;6383;50.830;7.210;2023-12-20T04:04:15;17.08;;;3.92;;
12635;SDS011;6383;50.830;7.210;2023-12-20T04:06:44;14.68;;;4.10;;
12635;SDS011;6383;50.830;7.210;2023-12-20T04:09:13;15.38;;;4.28;;
12635;SDS011;6383;50.830;7.210;2023-12-20T04:11:41;15.80;;;3.92;;
12635;SDS011;6383;50.830;7.210;2023-12-20T04:14:09;18.75;;;3.92;;
12635;SDS011;6383;50.830;7.210;2023-12-20T04:16:37;15.23;;;4.07;;
12635;SDS011;6383;50.830;7.210;2023-12-20T04:19:06;15.45;;;3.95;;
12635;SDS011;6383;50.830;7.210;2023-12-20T04:21:34;16.83;;;4.93;;
12635;SDS011;6383;50.830;7.210;2023-12-20T04:24:04;21.77;;;4.43;;
12635;SDS011;6383;50.830;7.210;2023-12-20T04:26:32;14.88;;;4.35;;
12635;SDS011;6383;50.830;7.210;2023-12-20T04:29:01;20.67;;;5.13;;
12635;SDS011;6383;50.830;7.210;2023-12-20T04:31:30;16.80;;;4.28;;
12635;SDS011;6383;50.830;7.210;2023-12-20T04:33:58;18.25;;;4.40;;
12635;SDS011;6383;50.830;7.210;2023-12-20T04:36:26;14.68;;;4.25;;
12635;SDS011;6383;50.830;7.210;2023-12-20T04:38:57;17.73;;;5.07;;
12635;SDS011;6383;50.830;7.210;2023-12-20T04:41:27;19.80;;;4.90;;
12635;SDS011;6383;50.830;7.210;2023-12-20T04:43:57;17.40;;;4.55;;
12635;SDS011;6383;50.830;7.210;2023-12-20T04:46:26;19.60;;;4.67;;
12635;SDS011;6383;50.830;7.210;2023-12-20T04:48:55;20.80;;;4.32;;
12635;SDS011;6383;50.830;7.210;2023-12-20T04:51:23;19.10;;;4.43;;
12635;SDS011;6383;50.830;7.210;2023-12-20T04:53:52;18.75;;;4.75;;
12635;SDS011;6383;50.830;7.210;2023-12-20T04:56:20;17.88;;;4.40;;
12635;SDS011;6383;50.830;7.210;2023-12-20T04:58:52;16.30;;;4.60;;
12635;SDS011;6383;50.830;7.210;2023-12-20T05:01:21;19.65;;;4.85;;
12635;SDS011;6383;50.830;7.210;2023-12-20T05:03:50;17.67;;;4.95;;
12635;SDS011;6383;50.830;7.210;2023-12-20T05:06:18;19.42;;;4.95;;
12635;SDS011;6383;50.830;7.210;2023-12-20T05:08:47;17.92;;;4.38;;
12635;SDS011;6383;50.830;7.210;2023-12-20T05:11:16;22.55;;;5.45;;
12635;SDS011;6383;50.830;7.210;2023-12-20T05:13:43;21.40;;;5.07;;
12635;SDS011;6383;50.830;7.210;2023-12-20T05:16:13;20.45;;;5.35;;
12635;SDS011;6383;50.830;7.210;2023-12-20T05:18:44;18.25;;;4.85;;
12635;SDS011;6383;50.830;7.210;2023-12-20T05:21:13;22.98;;;5.38;;
12635;SDS011;6383;50.830;7.210;2023-12-20T05:23:43;21.42;;;5.00;;
12635;SDS011;6383;50.830;7.210;2023-12-20T05:26:10;19.00;;;4.97;;
12635;SDS011;6383;50.830;7.210;2023-12-20T05:28:39;21.85;;;5.10;;
12635;SDS011;6383;50.830;7.210;2023-12-20T05:31:06;21.37;;;5.67;;
12635;SDS011;6383;50.830;7.210;2023-12-20T05:33:36;19.52;;;5.95;;
12635;SDS011;6383;50.830;7.210;2023-12-20T05:36:05;20.02;;;5.53;;
12635;SDS011;6383;50.830;7.210;2023-12-20T05:38:37;19.15;;;5.53;;
12635;SDS011;6383;50.830;7.210;2023-12-20T05:41:04;22.52;;;5.50;;
12635;SDS011;6383;50.830;7.210;2023-12-20T05:43:32;19.00;;;4.80;;
12635;SDS011;6383;50.830;7.210;2023-12-20T05:46:01;22.23;;;5.75;;
12635;SDS011;6383;50.830;7.210;2023-12-20T05:48:30;16.40;;;4.95;;
12635;SDS011;6383;50.830;7.210;2023-12-20T05:50:59;23.00;;;5.35;;
12635;SDS011;6383;50.830;7.210;2023-12-20T05:53:27;22.50;;;5.38;;
12635;SDS011;6383;50.830;7.210;2023-12-20T05:55:54;18.33;;;5.20;;
12635;SDS011;6383;50.830;7.210;2023-12-20T05:58:22;18.53;;;5.60;;
12635;SDS011;6383;50.830;7.210;2023-12-20T06:00:49;23.20;;;6.00;;
12635;SDS011;6383;50.830;7.210;2023-12-20T06:03:18;18.23;;;5.07;;
12635;SDS011;6383;50.830;7.210;2023-12-20T06:05:45;22.55;;;6.00;;
12635;SDS011;6383;50.830;7.210;2023-12-20T06:08:14;23.60;;;5.30;;
12635;SDS011;6383;50.830;7.210;2023-12-20T06:10:42;17.85;;;5.32;;
12635;SDS011;6383;50.830;7.210;2023-12-20T06:13:11;18.58;;;5.85;;
12635;SDS011;6383;50.830;7.210;2023-12-20T06:15:40;20.92;;;5.60;;
12635;SDS011;6383;50.830;7.210;2023-12-20T06:18:09;20.83;;;5.28;;
12635;SDS011;6383;50.830;7.210;2023-12-20T06:20:37;19.77;;;5.72;;
12635;SDS011;6383;50.830;7.210;2023-12-20T06:23:06;19.63;;;6.63;;
12635;SDS011;6383;50.830;7.210;2023-12-20T06:25:36;23.52;;;5.68;;
12635;SDS011;6383;50.830;7.210;2023-12-20T06:28:05;19.80;;;5.40;;
12635;SDS011;6383;50.830;7.210;2023-12-20T06:30:33;23.93;;;6.30;;
12635;SDS011;6383;50.830;7.210;2023-12-20T06:33:02;18.38;;;5.80;;
12635;SDS011;6383;50.830;7.210;2023-12-20T06:35:31;23.42;;;5.85;;
12635;SDS011;6383;50.830;7.210;2023-12-20T06:38:00;24.27;;;6.57;;
12635;SDS011;6383;50.830;7.210;2023-12-20T06:40:30;23.42;;;6.88;;
12635;SDS011;6383;50.830;7.210;2023-12-20T06:43:00;20.08;;;6.28;;
12635;SDS011;6383;50.830;7.210;2023-12-20T06:45:27;24.67;;;7.13;;
12635;SDS011;6383;50.830;7.210;2023-12-20T06:47:55;26.08;;;7.72;;
12635;SDS011;6383;50.830;7.210;2023-12-20T06:50:25;18.67;;;6.63;;
12635;SDS011;6383;50.830;7.210;2023-12-20T06:52:53;23.87;;;5.97;;
12635;SDS011;6383;50.830;7.210;2023-12-20T06:55:22;25.20;;;6.03;;
12635;SDS011;6383;50.830;7.210;2023-12-20T06:57:50;17.70;;;5.60;;
12635;SDS011;6383;50.830;7.210;2023-12-20T07:00:20;20.38;;;6.00;;
12635;SDS011;6383;50.830;7.210;2023-12-20T07:02:49;22.52;;;6.05;;
12635;SDS011;6383;50.830;7.210;2023-12-20T07:05:17;25.35;;;7.50;;
12635;SDS011;6383;50.830;7.210;2023-12-20T07:07:50;22.65;;;5.75;;
12635;SDS011;6383;50.830;7.210;2023-12-20T07:10:17;17.30;;;5.00;;
12635;SDS011;6383;50.830;7.210;2023-12-20T07:12:45;20.80;;;6.00;;
12635;SDS011;6383;50.830;7.210;2023-12-20T07:15:15;23.20;;;5.57;;
12635;SDS011;6383;50.830;7.210;2023-12-20T07:17:43;20.43;;;5.40;;
12635;SDS011;6383;50.830;7.210;2023-12-20T07:20:12;19.85;;;5.70;;
12635;SDS011;6383;50.830;7.210;2023-12-20T07:22:40;21.47;;;5.20;;
12635;SDS011;6383;50.830;7.210;2023-12-20T07:25:08;20.55;;;6.03;;
12635;SDS011;6383;50.830;7.210;2023-12-20T07:27:38;23.15;;;5.53;;
12635;SDS011;6383;50.830;7.210;2023-12-20T07:30:06;19.70;;;5.28;;
12635;SDS011;6383;50.830;7.210;2023-12-20T07:32:35;23.25;;;5.95;;
12635;SDS011;6383;50.830;7.210;2023-12-20T07:35:04;18.67;;;6.00;;
12635;SDS011;6383;50.830;7.210;2023-12-20T07:37:32;19.58;;;5.38;;
12635;SDS011;6383;50.830;7.210;2023-12-20T07:39:59;23.70;;;5.10;;
12635;SDS011;6383;50.830;7.210;2023-12-20T07:42:28;18.83;;;5.00;;
12635;SDS011;6383;50.830;7.210;2023-12-20T07:44:56;19.15;;;5.72;;
12635;SDS011;6383;50.830;7.210;2023-12-20T07:47:25;17.75;;;5.18;;
12635;SDS011;6383;50.830;7.210;2023-12-20T07:49:53;22.92;;;5.90;;
12635;SDS011;6383;50.830;7.210;2023-12-20T07:52:24;21.60;;;4.88;;
12635;SDS011;6383;50.830;7.210;2023-12-20T07:54:51;18.67;;;5.28;;
12635;SDS011;6383;50.830;7.210;2023-12-20T07:57:20;25.73;;;5.82;;
12635;SDS011;6383;50.830;7.210;2023-12-20T07:59:49;20.75;;;5.43;;
12635;SDS011;6383;50.830;7.210;2023-12-20T08:02:17;19.80;;;4.95;;
12635;SDS011;6383;50.830;7.210;2023-12-20T08:04:44;19.48;;;5.07;;
12635;SDS011;6383;50.830;7.210;2023-12-20T08:07:13;16.88;;;4.82;;
12635;SDS011;6383;50.830;7.210;2023-12-20T08:09:43;23.13;;;5.63;;
12635;SDS011;6383;50.830;7.210;2023-12-20T08:12:12;22.40;;;5.30;;
12635;SDS011;6383;50.830;7.210;2023-12-20T08:14:41;17.85;;;5.05;;
12635;SDS011;6383;50.830;7.210;2023-12-20T08:17:10;20.88;;;4.72;;
12635;SDS011;6383;50.830;7.210;2023-12-20T08:19:40;20.35;;;4.95;;
12635;SDS011;6383;50.830;7.210;2023-12-20T08:22:07;16.35;;;4.07;;
12635;SDS011;6383;50.830;7.210;2023-12-20T08:24:36;21.98;;;5.22;;
12635;SDS011;6383;50.830;7.210;2023-12-20T08:27:06;21.25;;;5.28;;
12635;SDS011;6383;50.830;7.210;2023-12-20T08:29:35;20.63;;;4.95;;
12635;SDS011;6383;50.830;7.210;2023-12-20T08:32:03;23.65;;;5.15;;
12635;SDS011;6383;50.830;7.210;2023-12-20T08:34:31;18.60;;;4.95;;
12635;SDS011;6383;50.830;7.210;2023-12-20T08:37:01;20.00;;;5.18;;
12635;SDS011;6383;50.830;7.210;2023-12-20T08:39:30;16.87;;;4.67;;
12635;SDS011;6383;50.830;7.210;2023-12-20T08:41:59;18.10;;;4.80;;
12635;SDS011;6383;50.830;7.210;2023-12-20T08:44:28;17.33;;;4.55;;
12635;SDS011;6383;50.830;7.210;2023-12-20T08:46:57;18.83;;;4.60;;
12635;SDS011;6383;50.830;7.210;2023-12-20T08:49:25;17.70;;;4.07;;
12635;SDS011;6383;50.830;7.210;2023-12-20T08:51:54;17.80;;;4.20;;
12635;SDS011;6383;50.830;7.210;2023-12-20T08:54:22;16.17;;;4.20;;
12635;SDS011;6383;50.830;7.210;2023-12-20T08:56:50;15.93;;;4.40;;
12635;SDS011;6383;50.830;7.210;2023-12-20T08:59:19;17.65;;;4.60;;
12635;SDS011;6383;50.830;7.210;2023-12-20T09:01:50;17.90;;;4.63;;
12635;SDS011;6383;50.830;7.210;2023-12-20T09:04:22;16.45;;;4.88;;
12635;SDS011;6383;50.830;7.210;2023-12-20T09:06:51;20.15;;;4.57;;
12635;SDS011;6383;50.830;7.210;2023-12-20T09:09:19;18.90;;;4.93;;
12635;SDS011;6383;50.830;7.210;2023-12-20T09:11:47;17.07;;;4.40;;
12635;SDS011;6383;50.830;7.210;2023-12-20T09:14:17;17.05;;;4.32;;
12635;SDS011;6383;50.830;7.210;2023-12-20T09:16:46;16.75;;;4.28;;
12635;SDS011;6383;50.830;7.210;2023-12-20T09:19:16;19.90;;;4.50;;
12635;SDS011;6383;50.830;7.210;2023-12-20T09:21:43;14.57;;;4.47;;
12635;SDS011;6383;50.830;7.210;2023-12-20T09:24:15;15.40;;;4.20;;
12635;SDS011;6383;50.830;7.210;2023-12-20T09:26:44;19.00;;;4.65;;
12635;SDS011;6383;50.830;7.210;2023-12-20T09:29:12;20.10;;;5.32;;
12635;SDS011;6383;50.830;7.210;2023-12-20T09:31:41;18.25;;;4.43;;
12635;SDS011;6383;50.830;7.210;2023-12-20T09:34:11;21.85;;;4.78;;
12635;SDS011;6383;50.830;7.210;2023-12-20T09:36:42;20.85;;;4.78;;
12635;SDS011;6383;50.830;7.210;2023-12-20T09:39:13;17.85;;;5.20;;
12635;SDS011;6383;50.830;7.210;2023-12-20T09:41:43;16.08;;;4.53;;
12635;SDS011;6383;50.830;7.210;2023-12-20T09:44:14;18.52;;;4.85;;
12635;SDS011;6383;50.830;7.210;2023-12-20T09:46:45;19.13;;;5.35;;
12635;SDS011;6383;50.830;7.210;2023-12-20T09:49:18;19.20;;;5.23;;
12635;SDS011;6383;50.830;7.210;2023-12-20T09:51:49;20.83;;;4.55;;
12635;SDS011;6383;50.830;7.210;2023-12-20T09:54:20;17.65;;;4.28;;
12635;SDS011;6383;50.830;7.210;2023-12-20T09:56:50;14.95;;;4.50;;
12635;SDS011;6383;50.830;7.210;2023-12-20T09:59:18;18.48;;;5.32;;
12635;SDS011;6383;50.830;7.210;2023-12-20T10:01:47;17.13;;;4.78;;
12635;SDS011;6383;50.830;7.210;2023-12-20T10:04:17;16.92;;;4.53;;
12635;SDS011;6383;50.830;7.210;2023-12-20T10:06:51;15.77;;;5.55;;
12635;SDS011;6383;50.830;7.210;2023-12-20T10:09:20;19.52;;;5.25;;
12635;SDS011;6383;50.830;7.210;2023-12-20T10:11:47;22.38;;;5.47;;
12635;SDS011;6383;50.830;7.210;2023-12-20T10:14:16;20.75;;;5.45;;
12635;SDS011;6383;50.830;7.210;2023-12-20T10:16:46;18.70;;;4.70;;
12635;SDS011;6383;50.830;7.210;2023-12-20T10:19:16;30.73;;;19.10;;
12635;SDS011;6383;50.830;7.210;2023-12-20T10:21:45;23.05;;;9.05;;
12635;SDS011;6383;50.830;7.210;2023-12-20T10:24:17;22.17;;;6.10;;
12635;SDS011;6383;50.830;7.210;2023-12-20T10:26:47;16.45;;;4.68;;
12635;SDS011;6383;50.830;7.210;2023-12-20T10:29:15;15.98;;;4.25;;
12635;SDS011;6383;50.830;7.210;2023-12-20T10:31:43;16.00;;;4.18;;
12635;SDS011;6383;50.830;7.210;2023-12-20T10:34:13;17.85;;;4.43;;
12635;SDS011;6383;50.830;7.210;2023-12-20T10:36:42;21.40;;;4.20;;
12635;SDS011;6383;50.830;7.210;2023-12-20T10:39:11;16.10;;;4.50;;
12635;SDS011;6383;50.830;7.210;2023-12-20T10:41:44;19.23;;;5.23;;
12635;SDS011;6383;50.830;7.210;2023-12-20T10:44:14;21.67;;;5.35;;
12635;SDS011;6383;50.830;7.210;2023-12-20T10:46:44;18.25;;;4.38;;
12635;SDS011;6383;50.830;7.210;2023-12-20T10:49:18;15.25;;;3.85;;
12635;SDS011;6383;50.830;7.210;2023-12-20T10:51:48;21.45;;;4.88;;
12635;SDS011;6383;50.830;7.210;2023-12-20T10:54:19;13.80;;;4.23;;
12635;SDS011;6383;50.830;7.210;2023-12-20T10:56:49;16.45;;;4.95;;
12635;SDS011;6383;50.830;7.210;2023-12-20T10:59:20;17.10;;;4.68;;
12635;SDS011;6383;50.830;7.210;2023-12-20T11:01:49;19.10;;;4.65;;
12635;SDS011;6383;50.830;7.210;2023-12-20T11:04:21;15.88;;;4.40;;
12635;SDS011;6383;50.830;7.210;2023-12-20T11:06:54;19.95;;;4.70;;
12635;SDS011;6383;50.830;7.210;2023-12-20T11:09:31;17.95;;;4.22;;
12635;SDS011;6383;50.830;7.210;2023-12-20T11:12:09;15.90;;;3.85;;
12635;SDS011;6383;50.830;7.210;2023-12-20T11:14:42;19.98;;;4.70;;
12635;SDS011;6383;50.830;7.210;2023-12-20T11:17:14;15.65;;;4.25;;
12635;SDS011;6383;50.830;7.210;2023-12-20T11:20:04;13.85;;;4.32;;
12635;SDS011;6383;50.830;7.210;2023-12-20T11:22:39;17.37;;;4.33;;
12635;SDS011;6383;50.830;7.210;2023-12-20T11:25:20;15.45;;;4.07;;
12635;SDS011;6383;50.830;7.210;2023-12-20T11:28:10;18.13;;;4.47;;
12635;SDS011;6383;50.830;7.210;2023-12-20T11:30:40;17.40;;;4.40;;
12635;SDS011;6383;50.830;7.210;2023-12-20T11:33:11;16.67;;;5.18;;
12635;SDS011;6383;50.830;7.210;2023-12-20T11:35:42;17.20;;;4.30;;
12635;SDS011;6383;50.830;7.210;2023-12-20T11:38:11;14.70;;;4.03;;
12635;SDS011;6383;50.830;7.210;2023-12-20T11:40:42;17.35;;;4.57;;
12635;SDS011;6383;50.830;7.210;2023-12-20T11:43:14;18.00;;;4.10;;
12635;SDS011;6383;50.830;7.210;2023-12-20T11:46:02;15.77;;;4.47;;
12635;SDS011;6383;50.830;7.210;2023-12-20T11:48:35;22.05;;;4.65;;
12635;SDS011;6383;50.830;7.210;2023-12-20T11:51:08;18.58;;;4.50;;
12635;SDS011;6383;50.830;7.210;2023-12-20T11:53:36;17.45;;;4.65;;
12635;SDS011;6383;50.830;7.210;2023-12-20T11:56:05;16.10;;;4.68;;
12635;SDS011;6383;50.830;7.210;2023-12-20T11:58:35;14.07;;;3.97;;
12635;SDS011;6383;50.830;7.210;2023-12-20T12:01:04;19.15;;;4.85;;
12635;SDS011;6383;50.830;7.210;2023-12-20T12:03:34;16.33;;;4.18;;
12635;SDS011;6383;50.830;7.210;2023-12-20T12:06:04;14.67;;;4.47;;
12635;SDS011;6383;50.830;7.210;2023-12-20T12:08:33;16.50;;;4.28;;
12635;SDS011;6383;50.830;7.210;2023-12-20T12:11:03;14.07;;;4.57;;
12635;SDS011;6383;50.830;7.210;2023-12-20T12:13:32;18.27;;;4.43;;
12635;SDS011;6383;50.830;7.210;2023-12-20T12:16:03;15.63;;;4.13;;
12635;SDS011;6383;50.830;7.210;2023-12-20T12:18:33;13.73;;;3.87;;
12635;SDS011;6383;50.830;7.210;2023-12-20T12:21:03;14.48;;;3.70;;
12635;SDS011;6383;50.830;7.210;2023-12-20T12:23:32;22.75;;;6.38;;
12635;SDS011;6383;50.830;7.210;2023-12-20T12:26:03;17.93;;;6.47;;
12635;SDS011;6383;50.830;7.210;2023-12-20T12:28:31;16.00;;;6.07;;
12635;SDS011;6383;50.830;7.210;2023-12-20T12:31:02;19.00;;;5.15;;
12635;SDS011;6383;50.830;7.210;2023-12-20T12:33:32;11.77;;;4.18;;
12635;SDS011;6383;50.830;7.210;2023-12-20T12:36:01;16.25;;;5.13;;
12635;SDS011;6383;50.830;7.210;2023-12-20T12:38:31;18.00;;;4.13;;
12635;SDS011;6383;50.830;7.210;2023-12-20T12:41:01;19.00;;;4.43;;
12635;SDS011;6383;50.830;7.210;2023-12-20T12:43:29;12.57;;;4.30;;
12635;SDS011;6383;50.830;7.210;2023-12-20T12:45:57;16.52;;;4.40;;
12635;SDS011;6383;50.830;7.210;2023-12-20T12:48:26;18.27;;;3.97;;
12635;SDS011;6383;50.830;7.210;2023-12-20T12:50:56;13.50;;;4.10;;
12635;SDS011;6383;50.830;7.210;2023-12-20T12:53:26;15.47;;;4.60;;
12635;SDS011;6383;50.830;7.210;2023-12-20T12:55:55;13.07;;;4.47;;
12635;SDS011;6383;50.830;7.210;2023-12-20T12:58:24;12.30;;;4.10;;
12635;SDS011;6383;50.830;7.210;2023-12-20T13:00:52;14.50;;;3.88;;
12635;SDS011;6383;50.830;7.210;2023-12-20T13:03:21;16.67;;;3.75;;
12635;SDS011;6383;50.830;7.210;2023-12-20T13:05:51;15.40;;;3.92;;
12635;SDS011;6383;50.830;7.210;2023-12-20T13:08:18;13.80;;;3.88;;
12635;SDS011;6383;50.830;7.210;2023-12-20T13:10:47;13.85;;;4.05;;
12635;SDS011;6383;50.830;7.210;2023-12-20T13:13:17;18.27;;;5.25;;
12635;SDS011;6383;50.830;7.210;2023-12-20T13:15:44;15.32;;;4.13;;
12635;SDS011;6383;50.830;7.210;2023-12-20T13:18:17;14.65;;;4.57;;
12635;SDS011;6383;50.830;7.210;2023-12-20T13:20:45;19.98;;;7.55;;
12635;SDS011;6383;50.830;7.210;2023-12-20T13:23:14;20.05;;;9.48;;
12635;SDS011;6383;50.830;7.210;2023-12-20T13:25:45;13.98;;;5.60;;
12635;SDS011;6383;50.830;7.210;2023-12-20T13:28:15;15.23;;;4.97;;
12635;SDS011;6383;50.830;7.210;2023-12-20T13:30:43;16.23;;;4.75;;
12635;SDS011;6383;50.830;7.210;2023-12-20T13:33:11;17.92;;;5.85;;
12635;SDS011;6383;50.830;7.210;2023-12-20T13:35:39;19.58;;;5.72;;
12635;SDS011;6383;50.830;7.210;2023-12-20T13:38:08;18.50;;;5.05;;
12635;SDS011;6383;50.830;7.210;2023-12-20T13:40:39;20.70;;;5.45;;
12635;SDS011;6383;50.830;7.210;2023-12-20T13:43:07;17.87;;;4.53;;
12635;SDS011;6383;50.830;7.210;2023-12-20T13:45:38;21.15;;;4.97;;
12635;SDS011;6383;50.830;7.210;2023-12-20T13:48:07;18.35;;;4.88;;
12635;SDS011;6383;50.830;7.210;2023-12-20T13:50:35;14.93;;;4.32;;
12635;SDS011;6383;50.830;7.210;2023-12-20T13:53:03;17.83;;;5.10;;
12635;SDS011;6383;50.830;7.210;2023-12-20T13:55:31;19.05;;;5.13;;
12635;SDS011;6383;50.830;7.210;2023-12-20T13:58:00;19.23;;;6.18;;
12635;SDS011;6383;50.830;7.210;2023-12-20T14:00:29;19.98;;;4.82;;
12635;SDS011;6383;50.830;7.210;2023-12-20T14:02:57;14.43;;;4.70;;
12635;SDS011;6383;50.830;7.210;2023-12-20T14:05:24;17.60;;;4.57;;
12635;SDS011;6383;50.830;7.210;2023-12-20T14:07:54;14.50;;;4.13;;
12635;SDS011;6383;50.830;7.210;2023-12-20T14:10:24;20.23;;;4.85;;
12635;SDS011;6383;50.830;7.210;2023-12-20T14:12:53;15.73;;;4.30;;
12635;SDS011;6383;50.830;7.210;2023-12-20T14:15:22;19.63;;;5.10;;
12635;SDS011;6383;50.830;7.210;2023-12-20T14:17:52;19.92;;;5.55;;
12635;SDS011;6383;50.830;7.210;2023-12-20T14:20:22;18.48;;;4.78;;
12635;SDS011;6383;50.830;7.210;2023-12-20T14:22:49;15.60;;;4.03;;
12635;SDS011;6383;50.830;7.210;2023-12-20T14:25:18;19.33;;;4.78;;
12635;SDS011;6383;50.830;7.210;2023-12-20T14:27:46;15.30;;;4.53;;
12635;SDS011;6383;50.830;7.210;2023-12-20T14:30:15;15.02;;;4.63;;
12635;SDS011;6383;50.830;7.210;2023-12-20T14:32:44;15.27;;;4.68;;
12635;SDS011;6383;50.830;7.210;2023-12-20T14:35:15;16.77;;;4.25;;
12635;SDS011;6383;50.830;7.210;2023-12-20T14:37:43;13.77;;;3.92;;
12635;SDS011;6383;50.830;7.210;2023-12-20T14:40:11;16.60;;;3.90;;
12635;SDS011;6383;50.830;7.210;2023-12-20T14:42:42;16.73;;;4.32;;
12635;SDS011;6383;50.830;7.210;2023-12-20T14:45:11;11.68;;;4.15;;
12635;SDS011;6383;50.830;7.210;2023-12-20T14:47:39;15.35;;;4.20;;
12635;SDS011;6383;50.830;7.210;2023-12-20T14:50:09;15.55;;;3.85;;
12635;SDS011;6383;50.830;7.210;2023-12-20T14:52:38;10.25;;;3.53;;
12635;SDS011;6383;50.830;7.210;2023-12-20T14:55:07;9.85;;;3.53;;
12635;SDS011;6383;50.830;7.210;2023-12-20T14:57:35;9.85;;;3.65;;
12635;SDS011;6383;50.830;7.210;2023-12-20T15:00:04;12.25;;;3.35;;
12635;SDS011;6383;50.830;7.210;2023-12-20T15:02:34;8.83;;;3.70;;